Time;durP1;ratioP1;P1;durP2;ratioP2;P2;SDS_P1;SDS_P2;PMS_P1;PMS_P2;Temp;Humidity;BMP_temperature;BMP_pressure;BME280_temperature;BME280_humidity;BME280_pressure;Samples;Min_cycle;Max_cycle;Signal;HPM_P1;HPM_P2
2021/12/20 00:00:19;;;;;;;9.70;6.92;;;;;;;4.29;100.00;98887.11;1744706;80;21015;-66
2021/12/20 00:02:50;;;;;;;10.13;7.10;;;;;;;4.28;100.00;98885.02;1750261;81;21526;-65
2021/12/20 00:05:19;;;;;;;9.45;6.97;;;;;;;4.30;100.00;98892.14;1767088;79;21051;-65
2021/12/20 00:07:47;;;;;;;10.20;6.78;;;;;;;4.32;100.00;98889.51;1757092;80;21531;-66
2021/12/20 00:10:16;;;;;;;8.90;6.05;;;;;;;4.30;100.00;98899.79;1754218;81;21021;-66
2021/12/20 00:12:43;;;;;;;8.08;5.78;;;;;;;4.30;100.00;98892.14;1765759;80;21558;-65
2021/12/20 00:15:10;;;;;;;9.78;7.03;;;;;;;4.34;100.00;98894.94;1742696;80;21037;-65
2021/12/20 00:17:37;;;;;;;9.63;6.75;;;;;;;4.32;100.00;98895.45;1761613;80;21063;-65
2021/12/20 00:20:06;;;;;;;11.25;8.50;;;;;;;4.34;100.00;98900.45;1758138;80;21068;-65
2021/12/20 00:22:35;;;;;;;9.73;6.95;;;;;;;4.32;100.00;98908.19;1754789;81;21114;-65
2021/12/20 00:25:04;;;;;;;10.43;7.20;;;;;;;4.27;100.00;98911.83;1765584;79;21030;-65
2021/12/20 00:27:31;;;;;;;8.78;5.65;;;;;;;4.21;100.00;98908.64;1747168;81;21578;-65
2021/12/20 00:29:58;;;;;;;8.03;5.03;;;;;;;4.19;100.00;98904.06;1741751;81;21075;-65
2021/12/20 00:32:25;;;;;;;6.67;4.80;;;;;;;4.23;100.00;98906.48;1753655;81;21054;-65
2021/12/20 00:34:52;;;;;;;5.97;4.30;;;;;;;4.23;100.00;98912.86;1756477;81;21021;-66
2021/12/20 00:40:23;;;;;;;6.65;4.78;;;;;;;4.26;100.00;98913.55;1763047;80;21412;-65
2021/12/20 00:43:01;;;;;;;6.10;4.35;;;;;;;4.31;100.00;98920.98;1744875;81;21004;-66
2021/12/20 00:45:34;;;;;;;6.70;4.70;;;;;;;4.30;100.00;98915.50;1752235;80;21026;-64
2021/12/20 00:48:03;;;;;;;;;;;;;;;4.25;100.00;98916.98;1756403;81;21036;-68
2021/12/20 00:50:32;;;;;;;5.50;3.62;;;;;;;4.26;100.00;98927.98;1755499;81;20136;-68
2021/12/20 00:52:59;;;;;;;6.62;3.70;;;;;;;4.27;100.00;98936.02;1748544;80;21078;-67
2021/12/20 00:55:29;;;;;;;6.45;4.42;;;;;;;4.21;100.00;98935.38;1753624;80;21029;-68
2021/12/20 00:57:59;;;;;;;9.03;5.10;;;;;;;4.18;100.00;98933.44;1761290;80;21078;-68
2021/12/20 01:00:34;;;;;;;7.78;4.55;;;;;;;4.09;100.00;98933.81;1760405;80;21084;-68
2021/12/20 01:03:04;;;;;;;6.15;3.75;;;;;;;4.05;100.00;98939.94;1752219;80;21075;-68
2021/12/20 01:05:31;;;;;;;6.05;3.25;;;;;;;3.95;100.00;98957.31;1759257;80;21540;-68
2021/12/20 01:08:00;;;;;;;5.22;2.62;;;;;;;3.96;100.00;98948.34;1751168;81;21039;-68
2021/12/20 01:10:29;;;;;;;3.83;2.33;;;;;;;3.91;100.00;98949.42;1746592;81;21035;-68
2021/12/20 01:12:59;;;;;;;3.08;2.10;;;;;;;3.83;100.00;98949.73;1764398;81;21560;-68
2021/12/20 01:15:36;;;;;;;4.87;2.00;;;;;;;3.75;100.00;98953.89;1752451;80;21062;-68
2021/12/20 01:18:05;;;;;;;3.05;1.70;;;;;;;3.71;100.00;98953.63;1756991;80;21535;-68
2021/12/20 01:20:35;;;;;;;2.67;1.40;;;;;;;3.72;100.00;98957.00;1751453;81;21087;-68
2021/12/20 01:23:02;;;;;;;1.67;1.50;;;;;;;3.66;100.00;98961.89;1757576;81;21040;-68
2021/12/20 01:25:29;;;;;;;1.90;1.50;;;;;;;3.64;100.00;98968.76;1748635;81;21023;-67
2021/12/20 01:27:57;;;;;;;2.33;1.60;;;;;;;3.61;100.00;98967.17;1751850;80;21058;-68
2021/12/20 01:30:26;;;;;;;2.62;1.55;;;;;;;3.66;100.00;98970.80;1762682;80;21060;-67
2021/12/20 01:32:54;;;;;;;1.87;1.50;;;;;;;3.68;100.00;98974.55;1756829;80;21098;-68
2021/12/20 01:35:25;;;;;;;2.55;1.80;;;;;;;3.70;100.00;98980.41;1756971;81;21075;-68
2021/12/20 01:37:53;;;;;;;2.77;2.00;;;;;;;3.67;100.00;98976.70;1763264;81;21083;-68
2021/12/20 01:40:22;;;;;;;4.17;2.45;;;;;;;3.67;100.00;98984.34;1757908;81;21032;-64
2021/12/20 01:42:56;;;;;;;5.33;3.30;;;;;;;3.65;100.00;98979.33;1751997;80;21042;-65
2021/12/20 01:45:25;;;;;;;7.55;3.70;;;;;;;3.64;100.00;98982.75;1750092;81;21043;-65
2021/12/20 01:48:02;;;;;;;3.90;3.40;;;;;;;3.67;100.00;98981.38;1758203;81;21021;-66
2021/12/20 01:52:50;;;;;;;7.15;4.12;;;;;;;3.71;100.00;98988.41;1709336;80;21515;-65
2021/12/20 01:55:20;;;;;;;5.78;4.30;;;;;;;3.76;100.00;98990.34;1765087;80;20989;-65
2021/12/20 01:57:49;;;;;;;5.72;3.70;;;;;;;3.79;100.00;98996.56;1764708;81;21052;-68
2021/12/20 02:00:28;;;;;;;5.37;3.70;;;;;;;3.77;100.00;98996.66;1756822;81;21045;-69
2021/12/20 02:03:00;;;;;;;5.37;3.87;;;;;;;3.80;100.00;98997.78;1757194;81;21068;-68
2021/12/20 02:08:20;;;;;;;6.97;3.75;;;;;;;3.78;100.00;99002.56;1751187;81;21027;-68
2021/12/20 02:10:49;;;;;;;5.65;3.10;;;;;;;3.81;100.00;98996.05;1757668;80;21032;-67
2021/12/20 02:13:17;;;;;;;5.87;3.83;;;;;;;3.78;100.00;99003.37;1775605;80;21035;-67
2021/12/20 02:15:44;;;;;;;5.30;3.58;;;;;;;3.80;100.00;99000.78;1756803;80;21158;-65
2021/12/20 02:18:12;;;;;;;5.37;3.30;;;;;;;3.79;100.00;99005.47;1747313;81;21133;-65
2021/12/20 02:20:39;;;;;;;5.83;3.33;;;;;;;3.73;100.00;99006.57;1743550;81;21034;-67
2021/12/20 02:23:08;;;;;;;5.75;3.60;;;;;;;3.76;100.00;99015.80;1757073;80;21643;-68
2021/12/20 02:25:37;;;;;;;4.95;3.65;;;;;;;3.73;100.00;99017.17;1758566;81;21638;-68
2021/12/20 02:28:12;;;;;;;4.60;3.37;;;;;;;3.73;100.00;99010.39;1755522;80;21040;-68
2021/12/20 02:30:54;;;;;;;6.37;3.08;;;;;;;3.74;100.00;99012.48;1755999;80;21044;-68
2021/12/20 02:38:51;;;;;;;4.05;2.87;;;;;;;3.79;100.00;99010.56;1754867;81;21088;-68
2021/12/20 02:41:28;;;;;;;3.85;3.15;;;;;;;3.76;100.00;99010.25;1756001;81;21540;-68
2021/12/20 02:43:59;;;;;;;4.03;3.12;;;;;;;3.77;100.00;99008.52;1745694;80;21014;-68
2021/12/20 02:49:05;;;;;;;5.75;3.35;;;;;;;3.70;100.00;99009.23;1743190;81;20995;-68
2021/12/20 02:51:33;;;;;;;6.80;3.50;;;;;;;3.74;100.00;99013.75;1744496;81;21033;-68
2021/12/20 02:54:03;;;;;;;6.00;4.17;;;;;;;3.72;100.00;99023.98;1749930;81;21656;-68
2021/12/20 02:56:32;;;;;;;7.60;4.47;;;;;;;3.74;100.00;99035.39;1760968;80;21051;-68
2021/12/20 02:59:00;;;;;;;9.38;4.92;;;;;;;3.73;100.00;99038.38;1745940;81;21075;-68
2021/12/20 03:01:26;;;;;;;9.08;4.65;;;;;;;3.70;100.00;99029.58;1747792;81;21090;-68
2021/12/20 03:03:56;;;;;;;6.97;4.53;;;;;;;3.71;100.00;99036.34;1745712;81;21555;-69
2021/12/20 03:06:43;;;;;;;8.40;4.40;;;;;;;3.66;100.00;99042.05;1757901;80;21030;-68
2021/12/20 03:09:16;;;;;;;6.15;3.80;;;;;;;3.70;100.00;99044.03;1738970;81;21018;-67
2021/12/20 03:11:46;;;;;;;9.58;4.72;;;;;;;3.67;100.00;99042.45;1751066;80;21069;-68
2021/12/20 03:14:31;;;;;;;6.58;3.85;;;;;;;3.68;100.00;99044.54;1764295;80;20999;-67
2021/12/20 03:16:57;;;;;;;5.05;3.50;;;;;;;3.66;100.00;99046.31;1755075;79;21023;-68
2021/12/20 03:19:24;;;;;;;6.22;3.77;;;;;;;3.61;100.00;99053.69;1756366;81;21008;-68
2021/12/20 03:21:53;;;;;;;4.75;3.27;;;;;;;3.69;100.00;99062.30;1754629;81;21063;-68
2021/12/20 03:24:22;;;;;;;6.28;3.58;;;;;;;3.69;100.00;99061.03;1748022;80;21036;-68
2021/12/20 03:26:49;;;;;;;4.92;3.58;;;;;;;3.72;100.00;99060.89;1755147;81;21043;-68
2021/12/20 03:29:16;;;;;;;6.08;3.60;;;;;;;3.70;100.00;99058.03;1756610;81;20989;-68
2021/12/20 03:31:43;;;;;;;5.17;3.70;;;;;;;3.70;100.00;99069.03;1748981;81;21032;-68
2021/12/20 03:34:12;;;;;;;4.17;3.50;;;;;;;3.72;100.00;99060.06;1757245;81;21095;-68
2021/12/20 03:36:39;;;;;;;3.77;3.37;;;;;;;3.73;100.00;99060.02;1765393;80;21551;-68
2021/12/20 03:39:08;;;;;;;4.65;3.60;;;;;;;3.74;100.00;99058.29;1747141;81;21528;-68
2021/12/20 03:41:36;;;;;;;5.35;3.95;;;;;;;3.72;100.00;99062.16;1754422;80;21024;-68
2021/12/20 03:44:05;;;;;;;4.83;3.90;;;;;;;3.75;100.00;99068.84;1757610;81;21063;-68
2021/12/20 03:46:33;;;;;;;5.62;4.05;;;;;;;3.68;100.00;99059.80;1750670;80;21012;-68
2021/12/20 03:49:01;;;;;;;6.22;4.50;;;;;;;3.70;100.00;99059.30;1754174;81;21048;-69
2021/12/20 03:51:29;;;;;;;5.53;4.17;;;;;;;3.64;100.00;99057.81;1742751;81;21038;-68
2021/12/20 03:53:56;;;;;;;4.92;4.37;;;;;;;3.66;100.00;99066.67;1749106;80;21024;-67
2021/12/20 03:56:23;;;;;;;6.17;4.35;;;;;;;3.63;100.00;99068.05;1755393;80;21084;-68
2021/12/20 03:58:49;;;;;;;6.25;4.67;;;;;;;3.44;100.00;99071.30;1759409;80;21006;-68
2021/12/20 04:01:17;;;;;;;6.47;4.50;;;;;;;3.44;100.00;99067.94;1752617;81;21098;-69
2021/12/20 04:03:44;;;;;;;6.12;4.70;;;;;;;3.41;100.00;99066.34;1745208;81;20971;-68
2021/12/20 04:06:13;;;;;;;7.90;5.00;;;;;;;3.36;100.00;99072.86;1758175;80;21483;-66
2021/12/20 04:08:41;;;;;;;6.80;5.12;;;;;;;3.38;100.00;99074.89;1763931;81;21530;-65
2021/12/20 04:11:10;;;;;;;6.83;5.12;;;;;;;3.40;100.00;99082.03;1759081;80;21052;-66
2021/12/20 04:13:37;;;;;;;7.10;5.37;;;;;;;3.44;100.00;99080.66;1755993;81;21080;-66
2021/12/20 04:16:05;;;;;;;7.10;5.22;;;;;;;3.49;100.00;99083.84;1751212;81;21564;-66
2021/12/20 04:18:34;;;;;;;9.65;5.72;;;;;;;3.48;100.00;99086.83;1752750;81;21059;-65
2021/12/20 04:21:02;;;;;;;8.30;5.80;;;;;;;3.47;100.00;99087.73;1752828;81;21039;-65
2021/12/20 04:23:29;;;;;;;7.03;5.87;;;;;;;3.49;100.00;99094.02;1756100;80;21113;-66
2021/12/20 04:25:56;;;;;;;9.33;5.97;;;;;;;3.48;100.00;99101.27;1753718;81;21051;-66
2021/12/20 04:28:23;;;;;;;7.75;5.62;;;;;;;3.45;100.00;99100.95;1735274;81;21031;-66
2021/12/20 04:30:50;;;;;;;8.15;5.85;;;;;;;3.40;100.00;99111.28;1760750;81;20980;-65
2021/12/20 04:33:17;;;;;;;7.55;6.00;;;;;;;3.41;100.00;99109.59;1752969;81;21088;-66
2021/12/20 04:35:44;;;;;;;8.85;6.22;;;;;;;3.43;100.00;99115.86;1752476;81;21032;-68
2021/12/20 04:38:11;;;;;;;9.55;6.10;;;;;;;3.45;100.00;99116.64;1751133;80;21622;-68
2021/12/20 04:40:39;;;;;;;10.45;5.75;;;;;;;3.46;100.00;99118.31;1755226;81;21001;-68
2021/12/20 04:43:06;;;;;;;7.83;5.80;;;;;;;3.42;100.00;99125.22;1752482;81;21035;-68
2021/12/20 04:45:35;;;;;;;7.17;5.62;;;;;;;3.43;100.00;99117.14;1760658;80;21504;-66
2021/12/20 04:48:03;;;;;;;7.78;5.35;;;;;;;3.37;100.00;99126.67;1749003;80;21023;-67
2021/12/20 04:50:30;;;;;;;7.80;5.53;;;;;;;3.34;100.00;99132.30;1744302;81;20991;-67
2021/12/20 04:52:58;;;;;;;8.83;6.00;;;;;;;3.28;100.00;99137.61;1754020;81;21488;-68
2021/12/20 04:55:27;;;;;;;8.43;5.95;;;;;;;3.24;100.00;99138.61;1743276;81;21174;-68
2021/12/20 04:57:56;;;;;;;9.98;6.20;;;;;;;3.15;100.00;99136.79;1754357;81;21025;-68
2021/12/20 05:00:29;;;;;;;9.70;6.58;;;;;;;3.12;100.00;99139.45;1748544;81;21018;-68
2021/12/20 05:02:57;;;;;;;9.45;6.53;;;;;;;3.11;100.00;99140.33;1756088;80;21075;-65
2021/12/20 05:05:24;;;;;;;9.95;7.58;;;;;;;3.14;100.00;99143.19;1756790;80;21079;-65
2021/12/20 05:07:54;;;;;;;11.45;6.40;;;;;;;3.14;100.00;99148.27;1750407;81;21052;-67
2021/12/20 05:10:28;;;;;;;16.15;12.37;;;;;;;3.15;100.00;99146.14;1762578;80;21043;-68
2021/12/20 05:12:59;;;;;;;19.77;16.07;;;;;;;3.18;100.00;99160.84;1766505;80;21071;-68
2021/12/20 05:15:27;;;;;;;11.63;10.10;;;;;;;3.20;100.00;99150.18;1763588;80;21535;-68
2021/12/20 05:17:55;;;;;;;14.23;12.45;;;;;;;3.20;100.00;99159.50;1753902;80;21046;-68
2021/12/20 05:20:24;;;;;;;13.80;11.48;;;;;;;3.24;100.00;99160.23;1749795;81;21051;-68
2021/12/20 05:22:51;;;;;;;9.23;6.62;;;;;;;3.27;100.00;99163.95;1754173;81;21094;-68
2021/12/20 05:25:18;;;;;;;10.75;6.60;;;;;;;3.17;100.00;99160.45;1748134;81;21031;-68
2021/12/20 05:27:47;;;;;;;14.95;11.70;;;;;;;3.15;100.00;99167.75;1747580;81;21069;-68
2021/12/20 05:30:15;;;;;;;14.30;9.38;;;;;;;3.12;100.00;99167.84;1757903;81;21009;-67
2021/12/20 05:32:44;;;;;;;8.78;6.28;;;;;;;3.11;100.00;99167.02;1753216;81;21491;-69
2021/12/20 05:35:14;;;;;;;9.03;5.58;;;;;;;3.12;100.00;99171.23;1768408;80;21041;-68
2021/12/20 05:37:44;;;;;;;10.28;6.42;;;;;;;3.15;100.00;99183.01;1724142;81;21519;-68
2021/12/20 05:40:13;;;;;;;7.42;5.92;;;;;;;3.12;100.00;99181.83;1751048;80;21016;-68
2021/12/20 05:42:42;;;;;;;9.68;6.30;;;;;;;3.11;100.00;99181.45;1752403;81;21594;-68
2021/12/20 05:45:10;;;;;;;10.05;6.00;;;;;;;3.09;100.00;99181.50;1755736;80;21500;-67
2021/12/20 05:47:37;;;;;;;9.90;5.70;;;;;;;3.09;100.00;99188.30;1765587;81;21040;-68
2021/12/20 05:50:07;;;;;;;9.68;6.80;;;;;;;3.05;100.00;99181.22;1756022;80;21045;-68
2021/12/20 05:52:35;;;;;;;22.80;11.45;;;;;;;3.00;100.00;99183.08;1761309;80;22032;-68
2021/12/20 05:55:03;;;;;;;15.75;9.40;;;;;;;2.99;100.00;99191.59;1758878;81;21025;-68
2021/12/20 05:57:32;;;;;;;57.10;28.77;;;;;;;2.98;100.00;99192.47;1759116;80;21488;-68
2021/12/20 06:00:00;;;;;;;50.08;25.32;;;;;;;2.94;100.00;99191.77;1754171;81;21028;-68
2021/12/20 06:02:27;;;;;;;35.35;16.93;;;;;;;2.94;100.00;99193.03;1755197;81;21056;-68
2021/12/20 06:04:54;;;;;;;20.08;11.20;;;;;;;2.91;100.00;99191.85;1758266;80;21500;-68
2021/12/20 06:07:23;;;;;;;15.32;9.10;;;;;;;2.87;100.00;99203.00;1746470;81;21060;-68
2021/12/20 06:09:50;;;;;;;14.28;8.75;;;;;;;2.91;100.00;99199.48;1752641;80;21352;-68
2021/12/20 06:12:17;;;;;;;17.00;11.70;;;;;;;2.90;100.00;99201.64;1760017;80;21068;-68
2021/12/20 06:14:44;;;;;;;24.32;16.23;;;;;;;2.85;100.00;99202.67;1753873;81;21049;-68
2021/12/20 06:17:11;;;;;;;14.03;8.88;;;;;;;2.86;100.00;99200.51;1752233;80;21088;-69
2021/12/20 06:19:39;;;;;;;11.15;7.50;;;;;;;2.92;100.00;99205.38;1755268;80;21012;-68
2021/12/20 06:22:10;;;;;;;13.53;7.70;;;;;;;2.93;100.00;99207.88;1762484;81;21608;-66
2021/12/20 06:24:35;;;;;;;24.02;15.72;;;;;;;2.88;100.00;99215.27;1759262;80;20997;-66
2021/12/20 06:27:02;;;;;;;20.55;13.65;;;;;;;2.87;100.00;99205.55;1755418;80;21090;-67
2021/12/20 06:29:29;;;;;;;18.02;12.30;;;;;;;2.84;100.00;99206.94;1747527;81;21069;-66
2021/12/20 06:31:56;;;;;;;17.35;11.48;;;;;;;2.84;100.00;99209.89;1759185;81;21049;-65
2021/12/20 06:34:22;;;;;;;17.60;9.90;;;;;;;2.87;100.00;99210.63;1750249;81;21544;-66
2021/12/20 06:36:49;;;;;;;19.27;9.55;;;;;;;2.94;100.00;99215.06;1756323;81;21008;-66
2021/12/20 06:39:16;;;;;;;20.23;8.50;;;;;;;2.98;100.00;99216.61;1747942;81;21071;-66
2021/12/20 06:41:44;;;;;;;11.83;7.58;;;;;;;2.97;100.00;99220.88;1755416;80;21551;-66
2021/12/20 06:44:11;;;;;;;24.57;15.15;;;;;;;3.00;100.00;99222.06;1749867;81;21011;-66
2021/12/20 06:46:41;;;;;;;17.57;10.38;;;;;;;3.04;100.00;99230.84;1753965;81;21067;-66
2021/12/20 06:49:09;;;;;;;12.00;8.05;;;;;;;3.04;100.00;99227.84;1752507;80;21098;-67
2021/12/20 06:51:42;;;;;;;13.65;8.60;;;;;;;3.12;100.00;99233.95;1759979;79;21020;-66
2021/12/20 06:54:11;;;;;;;10.45;7.17;;;;;;;3.15;100.00;99235.95;1774041;79;20942;-66
2021/12/20 06:56:38;;;;;;;12.60;8.48;;;;;;;3.24;100.00;99229.71;1734866;80;21535;-66
2021/12/20 06:59:05;;;;;;;11.60;7.80;;;;;;;3.33;100.00;99231.13;1760511;80;21068;-66
2021/12/20 07:01:32;;;;;;;10.53;7.30;;;;;;;3.38;100.00;99234.33;1756865;80;21068;-65
2021/12/20 07:04:01;;;;;;;13.10;8.55;;;;;;;3.40;100.00;99231.28;1728925;80;21043;-65
2021/12/20 07:06:29;;;;;;;10.63;6.80;;;;;;;3.48;100.00;99230.57;1765598;80;21015;-66
2021/12/20 07:08:57;;;;;;;11.80;7.17;;;;;;;3.52;100.00;99221.13;1774832;78;21097;-66
2021/12/20 07:11:24;;;;;;;11.57;6.67;;;;;;;3.63;100.00;99227.94;1774628;78;20981;-66
2021/12/20 07:13:54;;;;;;;21.20;9.50;;;;;;;3.67;100.00;99230.77;1758976;79;21094;-66
2021/12/20 07:16:20;;;;;;;22.32;8.78;;;;;;;3.86;100.00;99233.91;1762012;79;21032;-66
2021/12/20 07:18:48;;;;;;;12.13;7.22;;;;;;;3.99;100.00;99237.21;1768186;80;21618;-66
2021/12/20 07:21:15;;;;;;;12.50;8.08;;;;;;;4.14;100.00;99251.53;1771906;78;21047;-66
2021/12/20 07:23:42;;;;;;;8.70;6.03;;;;;;;4.25;100.00;99257.48;1777961;78;21031;-66
2021/12/20 07:26:14;;;;;;;10.85;7.50;;;;;;;4.28;100.00;99258.20;1788379;78;21030;-66
2021/12/20 07:28:43;;;;;;;9.85;6.20;;;;;;;4.17;100.00;99265.40;1764974;78;21082;-66
2021/12/20 07:31:16;;;;;;;11.57;7.40;;;;;;;4.07;100.00;99267.91;1773886;79;21059;-66
2021/12/20 07:33:44;;;;;;;;;;;;;;;4.11;100.00;99269.45;1799750;78;21618;-66
2021/12/20 07:36:15;;;;;;;10.63;6.45;;;;;;;4.16;100.00;99269.67;1770078;78;20148;-66
2021/12/20 07:38:39;;;;;;;9.85;5.47;;;;;;;4.21;100.00;99271.59;1784491;78;21101;-67
2021/12/20 07:41:06;;;;;;;8.08;5.85;;;;;;;4.21;100.00;99272.86;1728369;81;21035;-66
2021/12/20 07:43:33;;;;;;;9.15;5.70;;;;;;;4.17;100.00;99273.05;1776361;78;21098;-66
2021/12/20 07:46:00;;;;;;;12.45;8.58;;;;;;;4.11;100.00;99275.37;1738469;80;21019;-66
2021/12/20 07:48:44;;;;;;;10.38;7.33;;;;;;;4.08;100.00;99282.31;1747856;79;21524;-66
2021/12/20 07:51:11;;;;;;;10.60;7.28;;;;;;;4.00;100.00;99287.69;1769695;80;21114;-66
2021/12/20 07:53:39;;;;;;;10.68;7.72;;;;;;;3.97;100.00;99301.37;1774584;79;21909;-66
2021/12/20 07:56:05;;;;;;;9.50;7.05;;;;;;;4.00;100.00;99307.61;1781201;78;21038;-66
2021/12/20 07:58:50;;;;;;;12.05;7.22;;;;;;;4.13;100.00;99304.61;1766535;80;21032;-66
2021/12/20 08:01:17;;;;;;;13.08;7.45;;;;;;;4.29;100.00;99306.14;1750933;81;21059;-68
2021/12/20 08:04:04;;;;;;;12.88;8.20;;;;;;;4.38;100.00;99319.83;1750912;80;21137;-68
2021/12/20 08:06:32;;;;;;;10.32;7.33;;;;;;;4.45;100.00;99321.23;1760187;81;21036;-68
2021/12/20 08:08:59;;;;;;;11.38;7.15;;;;;;;4.44;100.00;99316.19;1748319;81;21058;-68
2021/12/20 08:11:25;;;;;;;11.28;7.47;;;;;;;4.48;100.00;99317.73;1751250;81;21035;-68
2021/12/20 08:14:10;;;;;;;13.60;7.50;;;;;;;4.44;100.00;99319.59;1754069;81;21033;-68
2021/12/20 08:16:39;;;;;;;12.18;7.85;;;;;;;4.63;100.00;99322.70;1752970;80;21019;-68
2021/12/20 08:19:06;;;;;;;14.18;8.80;;;;;;;4.73;100.00;99322.28;1762836;80;21069;-68
2021/12/20 08:21:32;;;;;;;19.70;12.15;;;;;;;4.81;100.00;99325.81;1727330;80;21044;-68
2021/12/20 08:23:59;;;;;;;20.40;12.90;;;;;;;4.76;100.00;99323.42;1759778;80;21138;-68
2021/12/20 08:26:26;;;;;;;21.60;13.93;;;;;;;4.62;100.00;99323.13;1759112;80;20997;-68
2021/12/20 08:28:53;;;;;;;23.30;13.95;;;;;;;4.52;100.00;99327.77;1754506;81;21021;-68
2021/12/20 08:31:20;;;;;;;26.68;14.87;;;;;;;4.52;100.00;99329.05;1759395;81;21051;-68
2021/12/20 08:33:49;;;;;;;27.98;16.10;;;;;;;4.49;100.00;99327.05;1751621;81;21040;-68
2021/12/20 08:36:18;;;;;;;36.63;19.00;;;;;;;4.46;100.00;99322.05;1737366;81;21032;-68
2021/12/20 08:38:47;;;;;;;39.38;20.65;;;;;;;4.44;100.00;99323.83;1758051;81;21139;-68
2021/12/20 08:41:14;;;;;;;40.17;21.73;;;;;;;4.46;100.00;99327.16;1749723;81;21457;-68
2021/12/20 08:43:59;;;;;;;43.00;23.02;;;;;;;4.45;100.00;99319.96;1762926;80;21590;-68
2021/12/20 08:46:25;;;;;;;41.45;20.92;;;;;;;4.42;100.00;99321.37;1759687;80;22632;-68
2021/12/20 08:48:56;;;;;;;40.15;20.75;;;;;;;4.32;100.00;99334.04;1754661;81;21381;-67
2021/12/20 08:51:21;;;;;;;38.92;20.02;;;;;;;4.34;100.00;99333.11;1749498;81;21547;-68
2021/12/20 08:53:48;;;;;;;35.17;18.85;;;;;;;4.23;100.00;99322.93;1740818;81;21086;-67
2021/12/20 08:56:33;;;;;;;40.55;20.57;;;;;;;4.21;100.00;99331.45;1749907;80;21029;-68
2021/12/20 08:59:01;;;;;;;40.60;20.88;;;;;;;4.35;100.00;99333.94;1771653;79;21040;-68
2021/12/20 09:01:27;;;;;;;41.70;21.12;;;;;;;4.23;100.00;99335.22;1770186;79;21104;-68
2021/12/20 09:03:57;;;;;;;43.83;21.17;;;;;;;4.26;100.00;99338.09;1788729;79;21071;-68
2021/12/20 09:06:27;;;;;;;46.00;22.48;;;;;;;4.26;100.00;99343.18;1789031;79;21338;-69
2021/12/20 09:09:15;;;;;;;46.75;23.12;;;;;;;4.27;100.00;99335.94;1781114;78;21921;-69
2021/12/20 09:11:45;;;;;;;48.15;24.20;;;;;;;4.44;100.00;99328.52;1793717;79;21019;-67
2021/12/20 09:14:13;;;;;;;50.43;24.77;;;;;;;4.56;100.00;99331.01;1779128;79;21035;-67
2021/12/20 09:16:41;;;;;;;46.70;21.62;;;;;;;4.80;100.00;99324.95;1777605;79;21067;-67
2021/12/20 09:19:08;;;;;;;45.88;22.17;;;;;;;5.01;100.00;99327.57;1790700;78;21032;-67
2021/12/20 09:21:35;;;;;;;46.73;23.38;;;;;;;5.13;100.00;99331.33;1790083;78;21508;-67
2021/12/20 09:24:04;;;;;;;48.02;23.05;;;;;;;5.12;100.00;99333.50;1798615;78;21009;-67
2021/12/20 09:26:31;;;;;;;46.25;22.73;;;;;;;5.21;100.00;99326.31;1791021;78;21056;-67
2021/12/20 09:28:58;;;;;;;51.05;24.47;;;;;;;5.16;100.00;99329.94;1776546;79;21508;-66
2021/12/20 09:31:26;;;;;;;52.15;25.85;;;;;;;5.14;100.00;99330.45;1791102;78;21067;-67
2021/12/20 09:33:55;;;;;;;47.65;22.62;;;;;;;5.01;100.00;99331.40;1780404;79;21068;-67
2021/12/20 09:36:28;;;;;;;46.42;23.25;;;;;;;4.80;100.00;99330.05;1784886;79;21007;-67
2021/12/20 09:38:50;;;;;;;50.12;25.10;;;;;;;4.73;100.00;99334.20;1785795;78;21024;-66
2021/12/20 09:41:59;;;;;;;47.03;22.82;;;;;;;4.63;100.00;99329.08;1797463;78;21542;-67
2021/12/20 09:43:49;;;;;;;39.20;20.32;;;;;;;4.53;100.00;99320.95;1784664;79;21039;-67
2021/12/20 09:46:18;;;;;;;31.45;16.37;;;;;;;4.45;100.00;99324.23;1796565;78;21464;-67
2021/12/20 09:48:49;;;;;;;33.38;17.05;;;;;;;4.34;100.00;99325.89;1785274;78;21011;-66
2021/12/20 09:51:17;;;;;;;36.65;19.73;;;;;;;4.33;100.00;99326.34;1775343;79;21012;-67
2021/12/20 09:53:44;;;;;;;34.55;16.97;;;;;;;4.27;100.00;99326.58;1776688;80;21020;-66
2021/12/20 09:56:12;;;;;;;32.38;16.77;;;;;;;4.28;100.00;99327.39;1774022;79;21036;-67
2021/12/20 09:58:41;;;;;;;24.57;12.55;;;;;;;4.36;100.00;99322.42;1788261;78;21050;-66
2021/12/20 10:01:15;;;;;;;12.98;8.83;;;;;;;4.43;100.00;99329.38;1783860;79;21051;-67
2021/12/20 10:03:43;;;;;;;10.03;6.05;;;;;;;4.51;100.00;99330.37;1792906;78;21043;-67
2021/12/20 10:06:11;;;;;;;7.10;4.72;;;;;;;4.59;100.00;99325.81;1780992;79;21507;-67
2021/12/20 10:08:48;;;;;;;6.45;4.00;;;;;;;4.64;100.00;99335.82;1777669;79;21056;-67
2021/12/20 10:11:20;;;;;;;6.75;4.33;;;;;;;4.66;100.00;99330.22;1782832;78;21567;-67
2021/12/20 10:13:48;;;;;;;6.25;4.17;;;;;;;4.76;100.00;99333.61;1789878;79;21028;-67
2021/12/20 10:16:22;;;;;;;5.40;3.92;;;;;;;4.82;100.00;99331.28;1781904;79;21068;-67
2021/12/20 10:18:49;;;;;;;6.67;4.22;;;;;;;4.86;100.00;99327.72;1786453;78;21063;-67
2021/12/20 10:21:18;;;;;;;6.10;4.30;;;;;;;4.80;100.00;99326.23;1787561;78;21020;-66
2021/12/20 10:23:48;;;;;;;12.58;6.00;;;;;;;4.85;100.00;99331.63;1797545;79;21063;-66
2021/12/20 10:26:21;;;;;;;14.23;6.00;;;;;;;4.90;100.00;99331.80;1760377;79;21020;-67
2021/12/20 10:28:52;;;;;;;9.43;4.90;;;;;;;4.92;100.00;99333.02;1816103;78;21055;-67
2021/12/20 10:31:23;;;;;;;11.12;6.28;;;;;;;4.87;100.00;99335.77;1764720;80;21121;-67
2021/12/20 10:33:56;;;;;;;11.28;6.45;;;;;;;4.83;100.00;99331.68;1784216;78;21017;-67
2021/12/20 10:36:23;;;;;;;9.55;5.53;;;;;;;4.81;100.00;99334.73;1775523;79;21504;-67
2021/12/20 10:38:57;;;;;;;11.00;6.45;;;;;;;4.79;100.00;99337.78;1783417;79;21087;-67
2021/12/20 10:41:35;;;;;;;13.53;7.42;;;;;;;4.69;100.00;99333.48;1789119;78;21011;-67
2021/12/20 10:44:15;;;;;;;18.48;9.18;;;;;;;4.66;100.00;99328.48;1800675;78;21032;-67
2021/12/20 10:46:36;;;;;;;22.00;10.40;;;;;;;4.69;100.00;99336.48;1783680;78;21134;-67
2021/12/20 10:49:14;;;;;;;25.48;12.45;;;;;;;4.77;100.00;99340.84;1804155;78;21004;-67
2021/12/20 10:51:45;;;;;;;24.55;13.43;;;;;;;4.90;100.00;99343.73;1792250;78;21000;-66
2021/12/20 10:54:17;;;;;;;21.93;10.98;;;;;;;5.00;100.00;99342.02;1775022;79;21001;-67
2021/12/20 10:57:03;;;;;;;14.95;8.38;;;;;;;4.99;100.00;99344.20;1789258;78;21082;-67
2021/12/20 10:59:35;;;;;;;14.43;7.45;;;;;;;5.01;100.00;99357.72;1802606;78;21015;-67
2021/12/20 11:03:09;;;;;;;15.18;8.23;;;;;;;4.85;100.00;99355.39;1777647;79;21033;-66
2021/12/20 11:04:59;;;;;;;21.60;10.43;;;;;;;4.78;100.00;99361.61;1771651;80;21080;-67
2021/12/20 11:09:55;;;;;;;21.87;11.20;;;;;;;4.71;100.00;99357.20;1793233;78;21019;-67
2021/12/20 11:12:25;;;;;;;32.13;15.13;;;;;;;4.77;100.00;99359.97;1778417;79;21039;-66
2021/12/20 11:14:57;;;;;;;35.80;18.05;;;;;;;4.74;100.00;99363.44;1781463;78;21027;-67
2021/12/20 11:17:25;;;;;;;41.95;19.05;;;;;;;4.69;100.00;99362.80;1772334;79;21023;-67
2021/12/20 11:19:56;;;;;;;39.13;19.62;;;;;;;4.71;100.00;99369.13;1777480;79;21055;-67
2021/12/20 11:22:32;;;;;;;36.53;17.98;;;;;;;4.76;100.00;99364.21;1782411;78;21141;-68
2021/12/20 11:25:06;;;;;;;35.60;17.27;;;;;;;4.75;100.00;99366.84;1771754;80;21027;-67
2021/12/20 11:27:38;;;;;;;35.17;16.80;;;;;;;4.70;100.00;99368.72;1775052;79;21059;-66
2021/12/20 11:30:16;;;;;;;36.77;17.98;;;;;;;4.69;100.00;99367.08;1776817;79;21016;-67
2021/12/20 11:32:46;;;;;;;33.23;17.50;;;;;;;4.65;100.00;99365.53;1772126;79;21079;-67
2021/12/20 11:35:21;;;;;;;34.53;17.62;;;;;;;4.69;100.00;99361.98;1785841;78;21027;-67
2021/12/20 11:37:49;;;;;;;35.30;17.73;;;;;;;4.73;100.00;99355.88;1792679;79;21658;-67
2021/12/20 11:40:19;;;;;;;32.98;16.02;;;;;;;4.74;100.00;99358.80;1788614;79;21074;-67
2021/12/20 11:42:46;;;;;;;30.70;15.85;;;;;;;4.76;100.00;99367.21;1781483;78;21054;-67
2021/12/20 11:45:16;;;;;;;33.05;15.23;;;;;;;4.72;100.00;99368.22;1776980;79;21464;-67
2021/12/20 11:47:54;;;;;;;23.12;13.40;;;;;;;4.68;100.00;99370.05;1789212;78;21018;-67
2021/12/20 11:50:25;;;;;;;21.20;12.25;;;;;;;4.73;100.00;99374.54;1769591;79;21328;-67
2021/12/20 11:52:52;;;;;;;19.45;11.30;;;;;;;4.70;100.00;99373.37;1802943;78;21016;-67
2021/12/20 11:55:23;;;;;;;23.75;11.18;;;;;;;4.61;100.00;99375.83;1781058;79;21024;-67